Time;durP1;ratioP1;P1;durP2;ratioP2;P2;SDS_P1;SDS_P2;PMS_P1;PMS_P2;Temp;Humidity;BMP_temperature;BMP_pressure;BME280_temperature;BME280_humidity;BME280_pressure;Samples;Min_cycle;Max_cycle;Signal;HPM_P1;HPM_P2
2022/06/04 00:00:24;;;;;;;8.78;3.35;;;22.70;99.90;;;;;;1890892;75;21122;-84
2022/06/04 00:03:27;;;;;;;5.10;2.87;;;22.70;99.90;;;;;;1891951;75;21079;-81
2022/06/04 00:06:18;;;;;;;6.45;2.85;;;22.60;99.90;;;;;;1892022;75;21091;-81
2022/06/04 00:09:10;;;;;;;6.60;3.08;;;22.60;99.90;;;;;;1886071;75;21049;-81
2022/06/04 00:15:32;;;;;;;7.42;2.90;;;22.40;99.90;;;;;;1906274;75;21126;-81
2022/06/04 00:18:25;;;;;;;7.90;3.20;;;22.10;99.90;;;;;;1890548;75;21593;-81
2022/06/04 00:23:57;;;;;;;9.25;2.75;;;22.10;99.90;;;;;;1947294;72;22138;-80
2022/06/04 00:27:07;;;;;;;5.70;2.55;;;22.10;99.90;;;;;;1902577;75;21102;-81
2022/06/04 00:30:16;;;;;;;6.67;2.58;;;22.00;99.90;;;;;;1898098;75;21479;-81
2022/06/04 00:33:08;;;;;;;9.55;3.30;;;22.00;99.90;;;;;;1912672;75;21319;-80
2022/06/04 00:36:18;;;;;;;5.20;2.83;;;21.90;99.90;;;;;;1895679;75;21098;-81
2022/06/04 00:39:09;;;;;;;9.18;3.20;;;21.80;99.90;;;;;;1898500;75;21088;-80
2022/06/04 00:42:05;;;;;;;7.20;2.90;;;21.80;99.90;;;;;;1897661;75;21095;-80
2022/06/04 00:45:33;;;;;;;13.58;3.25;;;21.70;99.90;;;;;;1886944;75;21134;-80
2022/06/04 00:48:32;;;;;;;8.70;3.35;;;21.60;99.90;;;;;;1912021;75;21051;-81
2022/06/04 00:51:25;;;;;;;6.55;2.77;;;21.60;99.90;;;;;;1902145;75;21099;-80
2022/06/04 00:54:17;;;;;;;5.60;3.00;;;21.50;99.90;;;;;;1916556;75;21151;-80
2022/06/04 00:57:51;;;;;;;7.72;3.25;;;21.60;99.90;;;;;;1904923;75;21225;-80
2022/06/04 01:03:47;;;;;;;9.43;2.60;;;21.50;99.90;;;;;;1947215;72;22130;-85
2022/06/04 01:06:59;;;;;;;8.20;2.62;;;21.60;99.90;;;;;;1940355;73;21561;-86
2022/06/04 01:10:23;;;;;;;8.33;3.20;;;21.80;99.90;;;;;;1917564;75;21090;-85
2022/06/04 01:13:27;;;;;;;7.83;2.85;;;21.70;99.90;;;;;;1917325;73;21113;-85
2022/06/04 01:16:40;;;;;;;7.08;2.52;;;21.60;99.90;;;;;;1917429;75;21059;-86
2022/06/04 01:19:41;;;;;;;5.35;2.62;;;21.50;99.90;;;;;;1917633;75;21114;-85
2022/06/04 01:23:07;;;;;;;6.90;2.65;;;21.50;99.90;;;;;;1917682;75;21136;-85
2022/06/04 01:26:30;;;;;;;9.38;3.55;;;21.50;99.90;;;;;;1917857;75;21487;-85
2022/06/04 01:29:25;;;;;;;8.23;3.20;;;21.50;99.90;;;;;;1918404;73;21130;-86
2022/06/04 01:32:21;;;;;;;7.67;2.92;;;21.50;99.90;;;;;;1917812;75;21176;-87
2022/06/04 01:35:16;;;;;;;12.47;3.70;;;21.50;99.90;;;;;;1917735;75;21066;-87
2022/06/04 01:38:11;;;;;;;8.93;3.40;;;21.50;99.90;;;;;;1928101;73;21055;-86
2022/06/04 01:41:07;;;;;;;7.00;3.45;;;21.60;99.90;;;;;;1922835;73;21129;-86
2022/06/04 01:44:01;;;;;;;7.42;3.27;;;21.60;99.90;;;;;;1917535;75;21131;-86
2022/06/04 01:46:56;;;;;;;9.40;2.87;;;21.50;99.90;;;;;;1937821;73;21086;-86
2022/06/04 01:49:51;;;;;;;7.60;3.33;;;21.60;99.90;;;;;;1917532;75;21486;-86
2022/06/04 01:52:43;;;;;;;5.78;3.33;;;21.50;99.90;;;;;;1917521;73;21099;-86
2022/06/04 01:55:41;;;;;;;9.10;3.30;;;21.50;99.90;;;;;;1917856;75;21063;-86
2022/06/04 01:58:37;;;;;;;6.67;3.35;;;21.60;99.90;;;;;;1917601;75;21106;-86
2022/06/04 02:01:33;;;;;;;10.23;2.95;;;21.60;99.90;;;;;;1917786;73;21604;-86
2022/06/04 02:04:27;;;;;;;7.53;3.25;;;21.60;99.90;;;;;;1917721;75;21526;-86
2022/06/04 02:10:09;;;;;;;8.73;2.85;;;21.60;99.90;;;;;;1940163;72;22117;-85
2022/06/04 02:13:19;;;;;;;9.68;3.33;;;21.70;99.90;;;;;;1883532;75;21035;-86
2022/06/04 02:16:32;;;;;;;7.35;2.92;;;21.70;99.90;;;;;;1884020;75;21055;-86
2022/06/04 02:19:25;;;;;;;6.85;2.70;;;21.70;99.90;;;;;;1885136;75;21063;-86
2022/06/04 02:22:35;;;;;;;9.13;3.20;;;21.60;99.90;;;;;;1875649;75;21110;-86
2022/06/04 02:25:29;;;;;;;7.87;2.80;;;21.60;99.90;;;;;;1887191;75;21166;-86
2022/06/04 02:28:20;;;;;;;9.13;3.67;;;21.50;99.90;;;;;;1883553;75;21084;-86
2022/06/04 02:31:15;;;;;;;8.93;2.60;;;21.50;99.90;;;;;;1889146;75;21164;-86
2022/06/04 02:34:11;;;;;;;10.00;3.17;;;21.40;99.90;;;;;;1875373;75;21165;-86
2022/06/04 02:37:06;;;;;;;8.80;3.10;;;21.40;99.90;;;;;;1890161;75;21635;-86
2022/06/04 02:40:01;;;;;;;6.20;2.60;;;21.30;99.90;;;;;;1892833;75;21133;-86
2022/06/04 02:42:56;;;;;;;7.28;2.62;;;21.20;99.90;;;;;;1894826;75;21071;-86
2022/06/04 02:48:36;;;;;;;8.45;2.55;;;21.20;99.90;;;;;;1954546;72;22229;-85
2022/06/04 02:51:49;;;;;;;10.28;2.92;;;21.20;99.90;;;;;;1902713;75;21024;-86
2022/06/04 02:55:02;;;;;;;7.78;3.20;;;21.30;99.90;;;;;;1900382;75;21055;-85
2022/06/04 02:57:56;;;;;;;7.65;2.80;;;21.20;99.90;;;;;;1897654;75;21087;-86
2022/06/04 03:01:08;;;;;;;6.42;2.83;;;21.30;99.90;;;;;;1885021;75;21171;-86
2022/06/04 03:03:59;;;;;;;9.93;3.25;;;21.30;99.90;;;;;;1903206;75;21654;-87
2022/06/04 03:06:52;;;;;;;6.25;2.80;;;21.30;99.90;;;;;;1887452;75;21177;-86
2022/06/04 03:09:45;;;;;;;8.60;3.05;;;21.30;99.90;;;;;;1898389;75;21060;-86
2022/06/04 03:12:36;;;;;;;6.78;2.85;;;21.30;99.90;;;;;;1890814;75;21224;-86
2022/06/04 03:15:28;;;;;;;6.78;2.80;;;21.20;99.90;;;;;;1906751;75;21035;-86
2022/06/04 03:18:20;;;;;;;7.17;2.75;;;21.20;99.90;;;;;;1907324;75;21047;-86
2022/06/04 03:21:12;;;;;;;9.00;2.77;;;21.20;99.90;;;;;;1890634;75;21183;-86
2022/06/04 03:24:03;;;;;;;6.22;2.85;;;21.10;99.90;;;;;;1901258;75;21175;-86
2022/06/04 03:26:55;;;;;;;7.10;2.72;;;21.10;99.90;;;;;;1901988;75;21113;-86
2022/06/04 03:29:47;;;;;;;6.47;3.33;;;21.10;99.90;;;;;;1908350;75;21070;-86
2022/06/04 03:32:38;;;;;;;5.40;2.45;;;21.10;99.90;;;;;;1905176;75;21129;-85
2022/06/04 03:35:30;;;;;;;10.88;3.02;;;21.00;99.90;;;;;;1898987;75;21047;-86
2022/06/04 03:38:21;;;;;;;11.53;3.17;;;21.00;99.90;;;;;;1898174;75;21055;-85
2022/06/04 03:41:13;;;;;;;5.67;2.87;;;21.00;99.90;;;;;;1895172;75;21097;-86
2022/06/04 03:44:05;;;;;;;7.42;3.10;;;21.00;99.90;;;;;;1906725;75;21040;-86
2022/06/04 03:46:57;;;;;;;8.15;2.92;;;21.00;99.90;;;;;;1905221;75;21211;-86
2022/06/04 03:49:48;;;;;;;7.87;2.70;;;21.00;99.90;;;;;;1900092;75;21115;-85
2022/06/04 03:52:41;;;;;;;6.33;2.65;;;21.00;99.90;;;;;;1885473;75;21110;-85
2022/06/04 03:55:33;;;;;;;6.75;2.72;;;21.00;99.90;;;;;;1907082;75;21541;-86
2022/06/04 03:58:29;;;;;;;7.05;3.08;;;20.90;99.90;;;;;;1905908;75;21056;-86
2022/06/04 04:01:19;;;;;;;6.67;2.47;;;20.90;99.90;;;;;;1879217;76;21116;-85
2022/06/04 04:04:11;;;;;;;6.87;2.72;;;20.90;99.90;;;;;;1896489;75;21109;-86
2022/06/04 04:07:02;;;;;;;4.90;2.70;;;20.90;99.90;;;;;;1894877;75;21540;-86
2022/06/04 04:09:55;;;;;;;8.70;2.95;;;20.90;99.90;;;;;;1894978;75;21113;-86
2022/06/04 04:12:46;;;;;;;6.90;2.47;;;20.90;99.90;;;;;;1897593;75;21094;-86
2022/06/04 04:15:39;;;;;;;6.30;2.95;;;20.90;99.90;;;;;;1898047;75;21052;-87
2022/06/04 04:18:30;;;;;;;5.90;2.67;;;20.90;99.90;;;;;;1894610;75;21538;-86
2022/06/04 04:21:23;;;;;;;5.80;2.62;;;20.90;99.90;;;;;;1891426;75;21122;-86
2022/06/04 04:24:15;;;;;;;11.90;2.95;;;20.90;99.90;;;;;;1884070;76;21101;-86
2022/06/04 04:27:07;;;;;;;5.62;2.80;;;21.00;99.90;;;;;;1898391;75;21113;-86
2022/06/04 04:29:58;;;;;;;7.28;3.52;;;21.00;99.90;;;;;;1895064;75;21043;-86
2022/06/04 04:32:50;;;;;;;6.75;2.92;;;21.10;99.90;;;;;;1895126;75;21067;-86
2022/06/04 04:35:41;;;;;;;7.42;2.85;;;21.10;99.90;;;;;;1896204;75;21046;-86
2022/06/04 04:38:33;;;;;;;8.93;3.20;;;21.10;99.90;;;;;;1900036;75;21180;-86
2022/06/04 04:41:25;;;;;;;7.33;2.85;;;21.10;99.90;;;;;;1894952;75;21110;-85
2022/06/04 04:44:16;;;;;;;6.53;3.17;;;21.10;99.90;;;;;;1916727;75;21075;-86
2022/06/04 04:47:08;;;;;;;9.55;3.47;;;21.20;99.90;;;;;;1895250;75;21067;-85
2022/06/04 04:50:00;;;;;;;9.15;3.20;;;21.20;99.90;;;;;;1888649;74;21130;-85
2022/06/04 04:52:52;;;;;;;8.50;3.10;;;21.20;99.90;;;;;;1884363;75;21044;-86
2022/06/04 04:55:48;;;;;;;5.40;3.22;;;21.30;99.90;;;;;;1894717;75;21647;-85
2022/06/04 04:58:39;;;;;;;8.63;3.00;;;21.20;99.90;;;;;;1894942;75;21055;-85
2022/06/04 05:01:31;;;;;;;8.98;3.12;;;21.30;99.90;;;;;;1897060;75;21606;-86
2022/06/04 05:04:23;;;;;;;8.10;3.12;;;21.30;99.90;;;;;;1884039;76;21187;-86
2022/06/04 05:07:14;;;;;;;6.90;3.17;;;21.30;99.90;;;;;;1906216;75;21115;-86
2022/06/04 05:10:09;;;;;;;6.60;2.83;;;21.40;99.90;;;;;;1906169;75;21111;-86
2022/06/04 05:13:00;;;;;;;7.05;3.17;;;21.40;99.90;;;;;;1883867;76;21171;-86
2022/06/04 05:15:51;;;;;;;11.50;3.55;;;21.40;99.90;;;;;;1894623;75;21117;-86
2022/06/04 05:18:43;;;;;;;9.60;3.42;;;21.50;99.90;;;;;;1895589;75;21117;-86
2022/06/04 05:21:40;;;;;;;8.78;2.72;;;21.50;99.90;;;;;;1894737;75;21099;-86
2022/06/04 05:24:34;;;;;;;8.03;3.27;;;21.50;99.90;;;;;;1894154;75;21575;-86
2022/06/04 05:27:25;;;;;;;11.05;2.77;;;21.40;99.90;;;;;;1898199;75;21184;-86
2022/06/04 05:30:17;;;;;;;9.35;3.15;;;21.30;99.90;;;;;;1897284;75;21098;-86
2022/06/04 05:33:09;;;;;;;9.45;3.33;;;21.30;99.90;;;;;;1894676;75;21156;-87
2022/06/04 05:36:00;;;;;;;9.45;3.90;;;21.30;99.90;;;;;;1894735;75;21125;-86
2022/06/04 05:38:52;;;;;;;7.90;2.98;;;21.40;99.90;;;;;;1897532;75;21076;-86
2022/06/04 05:41:44;;;;;;;6.17;3.20;;;21.40;99.90;;;;;;1898568;75;21168;-85
2022/06/04 05:44:36;;;;;;;5.72;2.72;;;21.40;99.90;;;;;;1894737;75;21043;-86
2022/06/04 05:47:28;;;;;;;8.75;3.72;;;21.30;99.90;;;;;;1891098;75;21101;-85
2022/06/04 05:52:59;;;;;;;10.32;3.50;;;21.30;99.90;;;;;;1962392;72;22172;-85
2022/06/04 05:56:18;;;;;;;7.53;3.30;;;21.20;99.90;;;;;;1951528;73;21114;-86
2022/06/04 05:59:28;;;;;;;7.25;3.33;;;21.30;99.90;;;;;;1918075;73;21062;-86
2022/06/04 06:02:19;;;;;;;5.85;3.10;;;21.30;99.90;;;;;;1940646;73;21115;-86
2022/06/04 06:05:31;;;;;;;7.75;3.42;;;21.50;99.90;;;;;;1940070;73;21106;-85
2022/06/04 06:08:23;;;;;;;9.00;3.80;;;21.50;99.90;;;;;;1919836;73;21140;-86
2022/06/04 06:11:16;;;;;;;8.23;3.42;;;21.50;99.90;;;;;;1931918;73;21163;-83
2022/06/04 06:14:08;;;;;;;9.78;3.75;;;21.60;99.90;;;;;;1917609;75;21113;-83
2022/06/04 06:17:00;;;;;;;11.30;3.52;;;21.60;99.90;;;;;;1927161;73;21413;-82
2022/06/04 06:19:53;;;;;;;8.93;3.52;;;21.60;99.90;;;;;;1924371;73;21060;-89
2022/06/04 06:22:44;;;;;;;8.95;3.98;;;21.70;99.90;;;;;;1917667;75;21414;-88
2022/06/04 06:25:36;;;;;;;9.60;3.92;;;21.60;99.90;;;;;;1927179;74;21055;-85
2022/06/04 06:28:28;;;;;;;11.57;3.25;;;21.70;99.90;;;;;;1917525;75;21129;-86
2022/06/04 06:31:22;;;;;;;6.80;3.75;;;21.80;99.90;;;;;;1917729;75;21129;-86
2022/06/04 06:34:14;;;;;;;10.43;3.83;;;21.90;99.90;;;;;;1917613;75;21098;-87
2022/06/04 06:37:08;;;;;;;6.45;4.25;;;22.00;99.90;;;;;;1917647;75;21110;-87
2022/06/04 06:40:00;;;;;;;7.12;3.62;;;22.10;99.90;;;;;;1930145;73;21098;-87
2022/06/04 06:42:51;;;;;;;8.25;3.90;;;22.20;99.90;;;;;;1921575;73;21180;-86
2022/06/04 06:45:44;;;;;;;8.15;3.90;;;22.30;99.90;;;;;;1916612;73;21950;-86
2022/06/04 06:48:37;;;;;;;10.10;3.80;;;22.30;99.90;;;;;;1917204;73;21062;-86
2022/06/04 06:51:30;;;;;;;9.13;3.87;;;22.30;99.90;;;;;;1918159;74;21090;-86
2022/06/04 06:54:24;;;;;;;10.00;4.03;;;22.40;99.90;;;;;;1933277;74;21055;-86
2022/06/04 06:57:18;;;;;;;10.30;4.47;;;22.50;99.90;;;;;;1937613;73;21053;-86
2022/06/04 07:00:16;;;;;;;7.00;3.72;;;22.60;99.90;;;;;;1945668;73;21152;-86
2022/06/04 07:03:08;;;;;;;10.60;4.70;;;22.70;99.90;;;;;;1951727;73;21080;-86
2022/06/04 07:06:00;;;;;;;8.80;3.95;;;22.80;99.90;;;;;;1954682;73;21133;-86
2022/06/04 07:08:52;;;;;;;9.48;4.35;;;22.80;99.90;;;;;;1940487;73;21120;-85
2022/06/04 07:11:45;;;;;;;10.08;3.77;;;22.80;99.90;;;;;;1944155;73;21154;-85
2022/06/04 07:14:37;;;;;;;11.45;3.87;;;22.80;99.90;;;;;;1946794;73;21073;-85
2022/06/04 07:17:29;;;;;;;9.98;3.40;;;22.90;99.90;;;;;;1932933;74;21536;-86
2022/06/04 07:23:03;;;;;;;9.38;3.60;;;23.00;99.90;;;;;;1953095;72;22086;-84
2022/06/04 07:26:14;;;;;;;9.93;3.65;;;23.10;99.90;;;;;;1915437;74;21030;-84
2022/06/04 07:29:26;;;;;;;8.45;3.62;;;23.10;99.90;;;;;;1878742;76;21104;-84
2022/06/04 07:34:59;;;;;;;12.35;3.95;;;23.40;99.90;;;;;;1953753;72;22613;-84
2022/06/04 07:38:09;;;;;;;5.92;3.52;;;23.30;99.90;;;;;;1915598;74;21117;-84
2022/06/04 07:41:21;;;;;;;8.60;4.10;;;23.40;99.90;;;;;;1912986;74;21080;-84
2022/06/04 07:44:14;;;;;;;8.68;3.70;;;23.40;99.90;;;;;;1909187;74;21082;-84
2022/06/04 07:47:24;;;;;;;8.03;3.83;;;23.40;99.90;;;;;;1912743;74;21075;-85
2022/06/04 07:50:16;;;;;;;11.20;3.95;;;23.40;99.90;;;;;;1905192;75;21055;-85
2022/06/04 07:53:09;;;;;;;8.93;3.58;;;23.40;99.90;;;;;;1904967;75;21106;-85
2022/06/04 07:56:02;;;;;;;6.87;3.22;;;23.50;99.90;;;;;;1927725;74;21197;-85
2022/06/04 07:58:54;;;;;;;8.75;3.62;;;23.50;99.90;;;;;;1927764;74;21122;-85
2022/06/04 08:01:46;;;;;;;9.75;3.45;;;23.50;99.90;;;;;;1909896;74;21548;-85
2022/06/04 08:04:40;;;;;;;9.85;3.58;;;23.50;99.90;;;;;;1904980;75;21083;-85
2022/06/04 08:07:31;;;;;;;10.72;3.22;;;23.60;99.90;;;;;;1908565;74;21082;-85
2022/06/04 08:10:23;;;;;;;8.18;2.80;;;23.70;99.90;;;;;;1917464;74;21168;-86
2022/06/04 08:13:18;;;;;;;5.67;2.90;;;23.90;99.90;;;;;;1904789;75;21130;-86
2022/06/04 08:16:12;;;;;;;8.30;3.67;;;23.90;99.90;;;;;;1927402;74;21339;-86
2022/06/04 08:19:04;;;;;;;9.40;3.37;;;24.20;99.90;;;;;;1919146;74;21571;-82
2022/06/04 08:22:05;;;;;;;7.17;3.20;;;24.30;99.90;;;;;;1905163;74;21166;-86
2022/06/04 08:24:57;;;;;;;9.53;3.33;;;24.30;99.90;;;;;;1905170;75;21122;-86
2022/06/04 08:27:49;;;;;;;10.78;3.50;;;24.50;99.90;;;;;;1920863;74;21167;-82
2022/06/04 08:30:41;;;;;;;10.25;3.70;;;24.50;99.90;;;;;;1905843;74;21217;-82
2022/06/04 08:33:33;;;;;;;8.28;3.72;;;24.60;99.90;;;;;;1905354;75;21098;-82
2022/06/04 08:36:25;;;;;;;9.83;3.20;;;24.70;99.90;;;;;;1933482;74;21562;-82
2022/06/04 08:39:17;;;;;;;6.62;3.05;;;24.90;99.90;;;;;;1909013;74;21117;-83
2022/06/04 08:42:22;;;;;;;8.28;3.27;;;24.90;99.90;;;;;;1921911;73;21111;-82
2022/06/04 08:45:14;;;;;;;9.30;3.35;;;25.00;99.90;;;;;;1908257;75;21597;-85
2022/06/04 08:48:14;;;;;;;7.75;3.35;;;25.10;99.90;;;;;;1911504;75;21166;-86
2022/06/04 08:51:10;;;;;;;6.50;3.00;;;25.30;99.90;;;;;;1922393;74;21176;-86
2022/06/04 08:57:32;;;;;;;9.63;3.40;;;25.40;99.90;;;;;;1923876;73;21136;-85
2022/06/04 09:00:16;;;;;;;10.72;4.37;;;25.50;99.90;;;;;;1923170;73;21062;-85
2022/06/04 09:03:09;;;;;;;;;;;25.60;99.90;;;;;;1913636;75;21156;-86
2022/06/04 09:06:11;;;;;;;9.18;3.70;;;25.70;99.90;;;;;;1911471;75;20395;-82
2022/06/04 09:09:07;;;;;;;9.08;3.70;;;25.70;99.90;;;;;;1909248;75;21098;-82
2022/06/04 09:12:01;;;;;;;8.15;3.00;;;25.70;99.90;;;;;;1938890;74;21111;-82
2022/06/04 09:14:56;;;;;;;8.90;3.47;;;25.80;99.90;;;;;;1919010;73;21059;-82
2022/06/04 09:17:51;;;;;;;9.28;3.60;;;25.80;99.90;;;;;;1908196;75;21137;-82
2022/06/04 09:20:45;;;;;;;7.67;3.45;;;25.80;99.90;;;;;;1920214;74;21091;-83
2022/06/04 09:26:28;;;;;;;8.28;3.40;;;26.00;99.90;;;;;;1940989;72;22252;-85
2022/06/04 09:30:00;;;;;;;7.75;3.12;;;26.00;99.90;;;;;;1894568;75;21169;-85
2022/06/04 09:33:33;;;;;;;8.13;3.08;;;26.00;99.90;;;;;;1894375;75;21085;-82
2022/06/04 09:36:28;;;;;;;9.15;3.40;;;26.00;99.90;;;;;;1894684;75;21546;-82
2022/06/04 09:39:40;;;;;;;6.08;2.90;;;26.00;99.90;;;;;;1894578;75;21059;-82
2022/06/04 09:42:55;;;;;;;7.95;3.15;;;26.10;99.90;;;;;;1872419;75;21112;-82
2022/06/04 10:00:01;;;;;;;8.18;3.05;;;26.20;99.90;;;;;;1845550;76;22151;-85
2022/06/04 10:06:01;;;;;;;6.62;3.10;;;27.00;99.90;;;;;;1940125;72;22266;-85
2022/06/04 10:15:57;;;;;;;7.80;3.20;;;27.10;99.90;;;;;;1888926;75;21104;-82
2022/06/04 10:19:17;;;;;;;15.78;3.83;;;27.20;99.90;;;;;;1889053;75;21089;-84
2022/06/04 10:22:14;;;;;;;6.85;2.90;;;27.30;99.90;;;;;;1894722;75;21096;-85
2022/06/04 10:25:23;;;;;;;8.13;2.87;;;27.30;99.90;;;;;;1884718;75;21668;-84
2022/06/04 10:28:30;;;;;;;7.95;2.90;;;27.40;99.90;;;;;;1891329;75;21050;-82
2022/06/04 10:31:30;;;;;;;7.72;3.35;;;27.40;99.90;;;;;;1910200;75;21228;-83
2022/06/04 10:34:28;;;;;;;6.92;3.37;;;27.40;99.90;;;;;;1895505;75;21067;-86
2022/06/04 10:37:43;;;;;;;8.88;3.42;;;27.40;99.90;;;;;;1896672;75;21122;-85
2022/06/04 10:44:06;;;;;;;6.87;3.35;;;27.70;99.90;;;;;;1939361;72;22129;-85
2022/06/04 10:47:23;;;;;;;10.98;3.42;;;27.80;99.90;;;;;;1886129;75;21066;-84
2022/06/04 10:56:36;;;;;;;8.58;3.12;;;27.90;99.90;;;;;;1934074;72;22247;-84
2022/06/04 10:59:50;;;;;;;10.88;3.45;;;27.90;99.90;;;;;;1892684;75;21153;-84
2022/06/04 11:03:03;;;;;;;10.68;3.30;;;28.20;99.90;;;;;;1911310;75;21113;-84
2022/06/04 11:05:57;;;;;;;11.80;3.65;;;28.20;99.90;;;;;;1906244;75;21055;-85
2022/06/04 11:09:11;;;;;;;9.43;3.42;;;28.30;99.90;;;;;;1883996;76;21074;-84
2022/06/04 11:12:08;;;;;;;9.20;3.37;;;28.40;99.90;;;;;;1884281;75;21548;-84
2022/06/04 11:15:03;;;;;;;8.53;2.95;;;28.50;99.90;;;;;;1911941;75;21201;-84
2022/06/04 11:17:58;;;;;;;8.85;3.17;;;28.60;99.90;;;;;;1900023;75;21490;-84
2022/06/04 11:20:57;;;;;;;10.55;3.52;;;28.60;99.90;;;;;;1889176;75;21109;-84
2022/06/04 11:23:52;;;;;;;8.60;2.80;;;28.70;99.90;;;;;;1900327;75;21197;-84
2022/06/04 11:26:49;;;;;;;8.30;2.90;;;28.70;99.90;;;;;;1892068;75;21094;-84
2022/06/04 11:29:41;;;;;;;12.05;3.30;;;28.80;99.90;;;;;;1903637;74;21131;-84
2022/06/04 11:32:37;;;;;;;10.40;3.33;;;29.00;99.90;;;;;;1895176;75;21106;-84
2022/06/04 11:35:39;;;;;;;9.15;3.75;;;29.10;99.90;;;;;;1902411;75;21289;-83
2022/06/04 11:38:42;;;;;;;9.50;3.17;;;29.10;99.90;;;;;;1905694;75;21062;-84
2022/06/04 11:41:37;;;;;;;9.28;3.27;;;29.30;99.90;;;;;;1906402;75;21099;-84
2022/06/04 11:44:53;;;;;;;9.65;3.58;;;29.50;99.90;;;;;;1907006;75;21096;-84
2022/06/04 11:47:49;;;;;;;;;;;29.70;99.90;;;;;;1891906;75;21066;-84
2022/06/04 11:53:26;;;;;;;9.43;4.58;;;29.80;99.90;;;;;;1944469;72;22203;-83
2022/06/04 11:56:41;;;;;;;11.12;3.25;;;29.80;99.90;;;;;;1905664;75;21187;-83
2022/06/04 12:00:02;;;;;;;12.28;3.58;;;29.80;99.90;;;;;;1905273;75;21119;-86
2022/06/04 12:02:58;;;;;;;8.65;3.58;;;29.80;99.90;;;;;;1905232;75;21515;-86
2022/06/04 12:06:12;;;;;;;10.93;3.30;;;29.90;99.90;;;;;;1904943;75;21095;-86
2022/06/04 12:09:08;;;;;;;9.48;3.50;;;30.00;99.90;;;;;;1927853;74;21121;-86
2022/06/04 12:12:03;;;;;;;10.40;3.08;;;30.00;99.90;;;;;;1917628;74;21084;-86
2022/06/04 12:17:47;;;;;;;11.75;3.60;;;30.30;99.90;;;;;;1945377;72;22085;-83
2022/06/04 12:24:40;;;;;;;12.55;3.08;;;30.90;99.90;;;;;;1917589;75;21513;-83
2022/06/04 12:27:33;;;;;;;10.32;3.60;;;31.00;99.90;;;;;;1917401;75;21083;-83
2022/06/04 12:30:46;;;;;;;7.92;2.87;;;31.00;99.90;;;;;;1937506;73;21041;-83
2022/06/04 12:33:41;;;;;;;8.00;3.20;;;31.10;99.90;;;;;;1939880;73;21138;-86
2022/06/04 12:36:35;;;;;;;7.33;3.40;;;31.00;99.90;;;;;;1919660;73;21052;-85
2022/06/04 12:42:21;;;;;;;7.55;2.80;;;31.40;99.90;;;;;;1957734;72;22233;-85
2022/06/04 12:45:36;;;;;;;11.73;3.27;;;31.30;99.90;;;;;;1899178;75;21056;-85
2022/06/04 12:48:57;;;;;;;11.70;3.10;;;31.40;99.90;;;;;;1888146;75;21205;-85
2022/06/04 12:51:55;;;;;;;9.55;2.70;;;31.60;99.90;;;;;;1904559;75;21581;-85
2022/06/04 12:55:11;;;;;;;9.48;3.05;;;31.30;99.90;;;;;;1885373;75;21687;-84
2022/06/04 12:58:06;;;;;;;9.55;3.00;;;31.20;99.90;;;;;;1886423;75;21109;-85
2022/06/04 13:01:00;;;;;;;8.38;2.55;;;31.00;99.90;;;;;;1909964;75;21534;-85
2022/06/04 13:04:07;;;;;;;10.72;3.10;;;31.00;99.90;;;;;;1895681;75;21213;-85
2022/06/04 13:09:50;;;;;;;10.00;3.00;;;31.10;99.90;;;;;;1957380;72;22190;-84
2022/06/04 13:13:05;;;;;;;9.33;2.80;;;31.20;99.90;;;;;;1889787;75;21197;-84
2022/06/04 13:16:20;;;;;;;13.30;3.12;;;31.30;99.90;;;;;;1899075;75;21059;-85
2022/06/04 13:19:19;;;;;;;9.45;2.60;;;31.10;99.90;;;;;;1894991;75;21095;-85
2022/06/04 13:22:29;;;;;;;;;;;31.20;99.90;;;;;;1887479;75;21066;-85
2022/06/04 13:25:25;;;;;;;11.05;2.67;;;31.10;99.90;;;;;;1897125;75;20117;-84
2022/06/04 13:28:28;;;;;;;10.50;2.65;;;31.10;99.90;;;;;;1895256;75;21472;-85
2022/06/04 13:31:23;;;;;;;9.43;2.90;;;31.20;99.90;;;;;;1889169;75;21097;-85
2022/06/04 13:34:17;;;;;;;7.15;3.00;;;31.30;99.90;;;;;;1877804;75;21112;-83
2022/06/04 13:37:11;;;;;;;10.90;3.65;;;31.10;99.90;;;;;;1903870;75;21790;-83
2022/06/04 13:40:04;;;;;;;11.88;2.98;;;31.10;99.90;;;;;;1894077;75;21142;-83
2022/06/04 13:43:01;;;;;;;13.70;3.45;;;31.00;99.90;;;;;;1884327;75;21118;-85
2022/06/04 13:45:52;;;;;;;15.63;3.15;;;31.20;99.90;;;;;;1907046;75;21066;-85
2022/06/04 13:49:11;;;;;;;12.18;2.98;;;31.00;99.90;;;;;;1906838;75;21036;-85
2022/06/04 13:52:10;;;;;;;14.03;3.00;;;31.00;99.90;;;;;;1907769;75;21062;-85
2022/06/04 13:55:05;;;;;;;14.30;3.20;;;31.30;99.90;;;;;;1903876;75;21151;-86
2022/06/04 13:57:59;;;;;;;10.40;3.00;;;31.70;99.90;;;;;;1902585;75;21110;-85
2022/06/04 14:00:54;;;;;;;13.58;3.05;;;32.20;99.90;;;;;;1906933;75;21094;-84
2022/06/04 14:03:50;;;;;;;11.28;3.45;;;32.20;99.90;;;;;;1906430;75;21118;-85
2022/06/04 14:06:43;;;;;;;12.60;3.30;;;31.90;99.90;;;;;;1908650;75;21102;-83
2022/06/04 14:09:35;;;;;;;8.08;2.62;;;31.50;99.90;;;;;;1890823;74;21179;-83
2022/06/04 14:15:19;;;;;;;16.80;3.80;;;31.90;99.90;;;;;;1927125;72;22620;-83
2022/06/04 14:18:53;;;;;;;11.45;2.83;;;31.90;99.90;;;;;;1914744;75;21121;-83
2022/06/04 14:22:05;;;;;;;13.80;3.50;;;31.60;99.90;;;;;;1896145;75;21044;-83
2022/06/04 14:25:08;;;;;;;10.40;3.62;;;31.40;99.90;;;;;;1906862;73;21086;-83
2022/06/04 14:28:25;;;;;;;11.20;3.67;;;31.30;99.90;;;;;;1895180;75;21079;-83
2022/06/04 14:31:20;;;;;;;7.58;2.83;;;31.70;99.90;;;;;;1895415;75;21173;-83
2022/06/04 14:34:13;;;;;;;11.93;3.02;;;32.40;99.90;;;;;;1895477;75;21067;-82
2022/06/04 14:37:05;;;;;;;10.23;2.70;;;32.30;99.90;;;;;;1899936;75;21237;-83
2022/06/04 14:39:59;;;;;;;10.65;3.10;;;31.90;99.90;;;;;;1897103;75;21172;-83
2022/06/04 14:43:17;;;;;;;13.00;2.98;;;32.20;99.90;;;;;;1895680;75;21124;-85
2022/06/04 14:46:21;;;;;;;9.60;3.00;;;32.70;99.90;;;;;;1895205;75;21563;-85
2022/06/04 14:49:29;;;;;;;10.98;3.30;;;32.40;99.90;;;;;;1894873;75;21105;-83
2022/06/04 14:52:28;;;;;;;7.65;2.45;;;32.80;99.90;;;;;;1895706;75;21098;-83
2022/06/04 14:55:23;;;;;;;11.75;2.90;;;32.70;99.90;;;;;;1895219;75;21055;-83
2022/06/04 14:58:22;;;;;;;12.28;3.25;;;33.40;99.90;;;;;;1897462;75;21584;-84
2022/06/04 15:01:27;;;;;;;13.80;3.22;;;33.10;99.90;;;;;;1872425;77;21106;-83
2022/06/04 15:04:55;;;;;;;9.35;2.90;;;32.40;99.90;;;;;;1898805;75;21124;-83
2022/06/04 15:08:18;;;;;;;9.33;2.92;;;32.60;99.90;;;;;;1900660;75;21062;-82
2022/06/04 15:11:19;;;;;;;12.70;3.60;;;33.20;99.90;;;;;;1902972;75;21261;-84
2022/06/04 15:14:16;;;;;;;9.25;2.80;;;34.00;99.90;;;;;;1884793;75;21091;-84
2022/06/04 15:17:13;;;;;;;10.90;2.47;;;33.60;99.90;;;;;;1884786;76;21587;-85
2022/06/04 15:20:09;;;;;;;10.67;2.93;;;33.20;99.90;;;;;;1884800;76;21070;-83
2022/06/04 15:23:36;;;;;;;9.78;3.10;;;32.50;99.90;;;;;;1884584;76;21163;-83
2022/06/04 15:26:35;;;;;;;11.78;3.02;;;33.50;99.90;;;;;;1872206;76;21134;-83
2022/06/04 15:36:14;;;;;;;12.37;2.90;;;35.60;99.90;;;;;;1905759;75;21126;-84
2022/06/04 15:38:54;;;;;;;9.18;2.65;;;34.40;99.90;;;;;;1872197;77;21103;-84
2022/06/04 15:41:55;;;;;;;13.70;3.33;;;35.00;99.90;;;;;;1899864;75;21467;-84
2022/06/04 15:45:04;;;;;;;11.65;3.60;;;35.30;99.60;;;;;;1885057;75;21102;-84
2022/06/04 15:48:00;;;;;;;11.57;2.67;;;35.20;99.00;;;;;;1896302;75;21236;-83
2022/06/04 15:57:44;;;;;;;10.03;3.02;;;36.40;96.50;;;;;;1907928;74;21055;-86
2022/06/04 16:00:39;;;;;;;10.68;3.15;;;36.30;96.00;;;;;;1906060;75;21063;-85
2022/06/04 16:03:34;;;;;;;10.68;2.95;;;36.30;95.70;;;;;;1905951;75;21045;-84
2022/06/04 16:06:27;;;;;;;13.58;3.20;;;36.80;94.70;;;;;;1871817;77;21183;-84
2022/06/04 16:09:28;;;;;;;12.82;3.33;;;36.80;94.10;;;;;;1887651;75;21679;-84
2022/06/04 16:15:10;;;;;;;10.30;2.65;;;36.20;94.40;;;;;;1946548;72;22213;-84
2022/06/04 16:18:24;;;;;;;11.48;3.17;;;36.60;94.20;;;;;;1924142;73;21035;-84
2022/06/04 16:21:39;;;;;;;13.53;3.37;;;37.50;93.10;;;;;;1921691;73;21127;-84
2022/06/04 16:24:34;;;;;;;10.10;3.12;;;37.30;92.60;;;;;;1916816;75;21102;-84
2022/06/04 16:28:02;;;;;;;8.25;3.17;;;37.20;92.30;;;;;;1916663;73;21184;-85
2022/06/04 16:31:15;;;;;;;10.38;2.65;;;36.40;92.80;;;;;;1917421;73;21132;-84
2022/06/04 16:34:10;;;;;;;13.13;2.70;;;36.10;93.00;;;;;;1928081;73;21147;-84
2022/06/04 16:37:01;;;;;;;9.70;3.15;;;35.90;93.30;;;;;;1917219;75;21623;-85
2022/06/04 16:39:53;;;;;;;11.73;3.12;;;35.10;93.70;;;;;;1917274;75;21086;-86
2022/06/04 16:42:50;;;;;;;14.65;3.40;;;34.60;94.60;;;;;;1916084;75;21098;-86
2022/06/04 16:46:35;;;;;;;10.70;3.20;;;34.30;95.20;;;;;;1916081;75;21360;-85
2022/06/04 16:52:38;;;;;;;8.88;3.33;;;34.10;96.30;;;;;;1939879;73;21102;-85
2022/06/04 16:55:32;;;;;;;12.65;3.05;;;34.40;95.80;;;;;;1917283;75;21070;-84
2022/06/04 16:58:24;;;;;;;11.48;3.50;;;34.30;96.10;;;;;;1917381;75;21171;-84
2022/06/04 17:01:19;;;;;;;12.55;3.37;;;34.60;95.70;;;;;;1933157;73;21158;-85
2022/06/04 17:04:14;;;;;;;14.07;3.20;;;34.50;96.00;;;;;;1917592;75;21107;-84
2022/06/04 17:07:10;;;;;;;10.75;3.08;;;34.20;96.20;;;;;;1917600;75;21143;-84